Aeroporto :
LOGIN :

Iscrizione | Disclaimer

   EN    FR    IT 

 










Sommario :    VFR   VFR Marginale   IFR   IFR Intensivo   IFR Molto Intensivo
Visibilità : 
Base nubi : 
>= 8 km
>= 3000ft
5 / 8 km
1000 / 3000 ft
1500m / 5 km
500 / 1000 ft
800 / 1500m
200 / 500 ft
< 800m
< 200 ft
Simboli :   Temporali  Nebbia  Neve Forte  Precipitazioni Forti  Vento > 20 kt
SIGMETs :   Varie  Temporali  Ghiacco  Turbolenza  Onda orograficha  Ceneri Vulcaniche







- Altitudine del aeroporto : 238 ft
- Codice IATA : FAB
- Carte del aeroporto


EGLF - Farnborough

ULTIMO METAR :
  • 181650Z AUTO 07011KT 050V110 9999 NCD 19/06 Q1022

METARs OBSOLETI :
  • 181620Z AUTO 08012KT 9999 NCD 19/06 Q1022
  • 181550Z AUTO 06011KT 9999 NCD 19/07 Q1022
  • 181520Z AUTO 07013KT 9999 NCD 20/08 Q1022
  • 181450Z 08013KT 9999 FEW049 20/09 Q1022
  • 181420Z 06012KT 030V100 9999 FEW049 20/09 Q1022

TAF TAF EGLF
Valido dal 18 a 15 ore il 18 a 23 ore UTC


181402Z 1815/1823 07012KT CAVOK
PROB40
TEMPO 1819/1823 8000
ATIS : +44 09063 800 400 (*282)
Nessun NOTAM noto per questo aeroporto.



MetMap, La meteo Aeronautica in un colpo d'occhio ! - Copyright ORBIFLY Dicembre 2007 - Disclaimer

ORBIFLY MET'MAP TEAM :

Programmazione e sviluppo : Alexandra Zaïnal
Concezione e sviluppo : Baudouin d'Aumeries
Co-Programmazione e sviluppo : Marc-Olivier Méhu
Supporto tecnico e logistico : Manuel Goepfert
Aiuto per la traduzione : Arnaldo La Scala

Contatto : metmap@orbifly.com




FONTI E CREDITI :

   NOAA